aviador You're here:

KNXF Decoded Metar

in
Report Time2018-05-25 19:56:00
UTC Time2018-05-25 20:40:08
Flight Rules vfr VFR
Wind290° at 13 kt
W.Decomp.*RWY 27: 12.2 kt HW 4.4 kt RCW
W.Rank290° ranks 4
Current wind is above 290° avg. (8.8)
Visibility9999 m
Phenomena:N/A
Clouds:N/A
Expected CloudBase > 4,000 ft AGL from Temp-Dew spread
CeilingNone
Temp21°C
Dew Point11°C (53% RH)
AAT16.7°C
QNH1020 hPa
Raw Report
KNXF 251956Z AUTO 29013KT 10SM CLR 21/11 A3012 RMK AO2 SLP283
T02060111 $=

Extra information for KNXF:More info

Social comments